Aérodrome :
LOGIN :

S'inscrire | Disclaimer

   EN    FR    IT 

 










Légende :    VFR   VFR Marginal   IFR   IFR Intensif   IFR Très Intensif
Visi : 
Plafond : 
>= 8 km
>= 3000ft
5 à 8 km
1000 à 3000 ft
1500m à 5 km
500 à 1000 ft
800 à 1500m
200 à 500 ft
< 800m
< 200 ft
Symboles :   Orages  Brouillard  Fortes neiges  Fortes précipitations  Vent > 20 kt
SIGMETs :   Divers  Orages  Givrage  Turbulence  Onde Orograph.  Cendres Volcan.






- Altitude de l'aérodrome : 1475 ft


LSZC - Buochs Stans

DERNIER METAR :
  • 272120Z AUTO 25016G26KT 230V290 9999 -DZ FEW042 BKN048 BKN055 05/M02 Q1011

METARs EXPIRÉS :
  • 272050Z AUTO 25020G31KT 9999 SCT050 SCT060 06/M04 Q1009
  • 272020Z AUTO 26019G40KT 220V300 9999 SCT050 07/M04 Q1008
  • 271950Z AUTO 24025G41KT 9999 BKN050 07/M03 Q1007
  • 271920Z AUTO 26022G33KT 230V290 9999 -RA BKN048 08/M01 Q1006
  • 271850Z AUTO 27023G43KT 230V310 9999 RA FEW039 BKN044 BKN050 08/00 Q1004

TAF TAF LSZC
Valide du 27 à 15h jusqu'au 28 à 00h UTC


271425Z 2715/2724 VRB03KT 4200 -SN FEW004 BKN015
TEMPO 2716/2720 8000 SHRA
TEMPO 2716/2724 24015G35KT
TEMPO 2720/2724 0500 +SHSN VV003



MET'MAP, la Météo Aéronautique d'un coup d'oeil ! - Copyright ORBIFLY Décembre 2007 - Disclaimer

ORBIFLY MET'MAP TEAM :

Programmation & Développement : Alexandra Zaïnal
Sur une idée originale de : Baudouin d'Aumeries
Assistance à la programmation : Marc-Olivier Méhu
Soutien technique & logistique : Manuel Goepfert

Contact : metmap@orbifly.com




SOURCES & CREDITS :

   NOAA